Time;durP1;ratioP1;P1;durP2;ratioP2;P2;SDS_P1;SDS_P2;PMS_P1;PMS_P2;Temp;Humidity;BMP_temperature;BMP_pressure;BME280_temperature;BME280_humidity;BME280_pressure;Samples;Min_cycle;Max_cycle;Signal;HPM_P1;HPM_P2
2021/10/17 00:01:15;;;;;;;1.27;0.50;;;20.60;79.60;;;;;;5083706;28;20179;-74
2021/10/17 00:03:42;;;;;;;1.47;0.63;;;20.50;79.60;;;;;;5093183;28;20228;-71
2021/10/17 00:06:09;;;;;;;1.33;0.50;;;20.60;79.10;;;;;;5091174;28;20179;-73
2021/10/17 00:08:37;;;;;;;3.00;0.80;;;20.80;80.00;;;;;;5093500;28;20222;-73
2021/10/17 00:11:04;;;;;;;1.20;0.40;;;20.90;79.20;;;;;;5093529;28;20175;-71
2021/10/17 00:13:31;;;;;;;0.57;0.50;;;21.00;77.40;;;;;;5093575;28;20214;-73
2021/10/17 00:15:59;;;;;;;6.40;0.70;;;21.30;77.00;;;;;;5092652;28;20270;-72
2021/10/17 00:18:26;;;;;;;1.93;0.70;;;21.20;77.80;;;;;;5093365;28;20174;-77
2021/10/17 00:20:54;;;;;;;2.07;0.80;;;21.40;77.20;;;;;;5093564;28;20285;-76
2021/10/17 00:23:21;;;;;;;1.93;0.90;;;21.60;77.10;;;;;;5091082;28;20632;-76
2021/10/17 00:25:49;;;;;;;1.80;0.77;;;21.70;75.80;;;;;;5087106;28;20735;-73
2021/10/17 00:28:16;;;;;;;0.63;0.50;;;21.40;75.40;;;;;;5091409;28;20606;-75
2021/10/17 00:30:44;;;;;;;1.47;0.60;;;21.20;74.10;;;;;;5077224;28;20187;-78
2021/10/17 00:33:11;;;;;;;0.63;0.50;;;21.00;73.90;;;;;;5071500;28;20240;-76
2021/10/17 00:35:39;;;;;;;1.23;0.70;;;20.90;74.30;;;;;;5088073;28;20269;-76
2021/10/17 00:38:07;;;;;;;0.87;0.53;;;21.20;74.20;;;;;;5093328;28;20655;-75
2021/10/17 00:40:34;;;;;;;0.50;0.50;;;21.30;74.70;;;;;;5092602;28;20697;-77
2021/10/17 00:43:02;;;;;;;1.60;0.70;;;21.50;73.70;;;;;;5092583;28;20186;-80
2021/10/17 00:45:32;;;;;;;1.23;0.50;;;21.70;74.50;;;;;;5092238;28;20181;-78
2021/10/17 00:48:04;;;;;;;1.43;1.07;;;21.50;72.60;;;;;;5092464;28;20339;-78
2021/10/17 00:50:32;;;;;;;2.23;0.70;;;21.70;71.00;;;;;;5092904;28;20688;-74
2021/10/17 00:52:59;;;;;;;1.23;0.60;;;21.90;70.70;;;;;;5092922;28;20194;-79
2021/10/17 00:55:29;;;;;;;0.90;0.50;;;21.70;71.60;;;;;;5093133;28;20174;-79
2021/10/17 00:58:00;;;;;;;1.37;0.60;;;22.00;70.50;;;;;;5086771;28;20537;-76
2021/10/17 01:00:28;;;;;;;3.03;0.70;;;22.20;70.50;;;;;;5092468;28;20187;-81
2021/10/17 01:02:56;;;;;;;8.03;0.70;;;22.40;69.80;;;;;;5092253;28;20206;-83
2021/10/17 01:05:23;;;;;;;0.67;0.50;;;22.50;70.10;;;;;;5092372;28;20182;-78
2021/10/17 01:07:50;;;;;;;2.13;0.63;;;22.60;70.00;;;;;;5092373;28;20538;-76
2021/10/17 01:10:19;;;;;;;1.47;0.57;;;22.50;73.10;;;;;;5092733;28;20175;-73
2021/10/17 01:12:46;;;;;;;2.20;0.53;;;22.20;74.00;;;;;;5090687;28;20237;-75
2021/10/17 01:15:14;;;;;;;1.63;0.77;;;22.50;73.00;;;;;;5092519;28;20185;-71
2021/10/17 01:17:41;;;;;;;1.43;0.60;;;22.60;69.40;;;;;;5092003;28;20178;-73
2021/10/17 01:20:10;;;;;;;2.13;0.67;;;22.50;69.60;;;;;;5086591;28;20683;-74
2021/10/17 01:22:41;;;;;;;0.87;0.70;;;22.70;69.30;;;;;;5098747;28;20198;-73
2021/10/17 01:25:09;;;;;;;2.20;0.93;;;22.60;72.90;;;;;;5099045;28;20210;-75
2021/10/17 01:27:38;;;;;;;3.23;0.90;;;22.70;75.50;;;;;;5091895;28;20171;-73
2021/10/17 01:30:08;;;;;;;4.00;1.00;;;22.90;75.90;;;;;;5092414;28;20265;-76
2021/10/17 01:32:35;;;;;;;3.23;0.77;;;23.20;76.00;;;;;;5092030;28;20178;-74
2021/10/17 01:35:03;;;;;;;3.73;1.23;;;23.40;75.40;;;;;;5086129;28;20194;-80
2021/10/17 01:37:30;;;;;;;2.13;0.80;;;23.60;74.30;;;;;;5079281;28;20201;-83
2021/10/17 01:39:58;;;;;;;4.20;1.20;;;23.50;74.10;;;;;;5084507;28;20419;-79
2021/10/17 01:42:25;;;;;;;2.70;0.90;;;23.50;75.30;;;;;;5090303;28;20179;-83
2021/10/17 01:44:52;;;;;;;6.07;2.40;;;23.60;76.10;;;;;;5091489;28;20183;-77
2021/10/17 01:47:20;;;;;;;2.47;0.90;;;23.50;75.80;;;;;;5091364;28;20186;-77
2021/10/17 01:49:47;;;;;;;3.37;1.10;;;23.60;76.90;;;;;;5091316;28;20286;-74
2021/10/17 01:52:15;;;;;;;1.93;0.80;;;23.70;77.30;;;;;;5089724;28;20174;-73
2021/10/17 01:54:42;;;;;;;3.07;1.27;;;23.30;77.40;;;;;;5088720;28;20330;-77
2021/10/17 01:57:09;;;;;;;4.10;1.03;;;23.00;77.00;;;;;;5086347;28;20236;-78
2021/10/17 01:59:37;;;;;;;3.20;0.90;;;23.00;77.60;;;;;;5089888;28;20178;-77
2021/10/17 02:02:04;;;;;;;4.23;0.83;;;23.20;77.60;;;;;;5090785;28;20652;-75
2021/10/17 02:04:31;;;;;;;2.70;0.90;;;23.50;77.50;;;;;;5089932;28;20500;-75
2021/10/17 02:07:00;;;;;;;5.67;1.00;;;23.60;76.40;;;;;;5088981;28;20182;-75
2021/10/17 02:09:27;;;;;;;3.37;1.13;;;23.90;77.70;;;;;;5091199;28;20680;-76
2021/10/17 02:11:55;;;;;;;4.90;2.03;;;23.80;77.20;;;;;;5088588;28;20207;-83
2021/10/17 02:14:22;;;;;;;4.30;2.00;;;24.10;77.30;;;;;;5091352;28;20190;-75
2021/10/17 02:16:51;;;;;;;6.07;1.27;;;24.10;76.60;;;;;;5093952;28;20182;-75
2021/10/17 02:19:18;;;;;;;3.17;1.00;;;23.60;77.30;;;;;;5091520;28;20190;-75
2021/10/17 02:21:45;;;;;;;2.37;0.97;;;23.70;77.40;;;;;;5091083;28;20186;-79
2021/10/17 02:24:13;;;;;;;3.43;0.90;;;23.50;77.80;;;;;;5092657;28;20183;-78
2021/10/17 02:26:40;;;;;;;4.37;1.03;;;23.70;77.80;;;;;;5094324;28;20201;-76
2021/10/17 02:29:08;;;;;;;3.20;1.20;;;23.80;77.10;;;;;;5089718;28;20222;-77
2021/10/17 02:31:35;;;;;;;5.00;1.30;;;24.00;77.80;;;;;;5093648;28;20185;-76
2021/10/17 02:34:03;;;;;;;2.70;0.90;;;24.40;77.10;;;;;;5084278;28;20540;-76
2021/10/17 02:36:30;;;;;;;2.37;0.77;;;25.00;75.20;;;;;;5084105;28;20179;-76
2021/10/17 02:38:57;;;;;;;2.53;0.83;;;24.80;75.00;;;;;;5088639;28;20236;-75
2021/10/17 02:41:25;;;;;;;4.17;0.93;;;25.10;74.50;;;;;;5093173;28;20175;-75
2021/10/17 02:43:52;;;;;;;5.40;1.37;;;25.10;74.40;;;;;;5092721;28;20213;-74
2021/10/17 02:46:20;;;;;;;0.90;0.70;;;24.70;76.10;;;;;;5093349;28;20178;-72
2021/10/17 02:48:47;;;;;;;1.93;0.87;;;25.00;75.80;;;;;;5089859;28;20243;-74
2021/10/17 02:51:14;;;;;;;3.10;1.10;;;25.20;74.90;;;;;;5093397;28;20182;-74
2021/10/17 02:53:42;;;;;;;3.17;1.07;;;24.80;75.60;;;;;;5095288;28;20179;-81
2021/10/17 02:56:09;;;;;;;5.37;1.60;;;24.90;75.90;;;;;;5094655;28;20173;-80
2021/10/17 02:58:36;;;;;;;4.70;1.60;;;24.90;76.50;;;;;;5075470;28;20171;-81
2021/10/17 03:01:04;;;;;;;3.03;0.90;;;24.70;76.70;;;;;;5095002;28;20183;-77
2021/10/17 03:03:31;;;;;;;2.60;1.10;;;25.40;76.10;;;;;;5094742;28;20704;-78
2021/10/17 03:05:59;;;;;;;2.60;0.90;;;25.30;76.00;;;;;;5088686;28;20265;-75
2021/10/17 03:08:26;;;;;;;2.50;0.90;;;24.80;76.20;;;;;;5093477;28;20214;-80
2021/10/17 03:10:53;;;;;;;4.03;1.37;;;24.60;77.00;;;;;;5088503;28;20194;-77
2021/10/17 03:13:21;;;;;;;5.40;0.90;;;24.60;77.60;;;;;;5093461;28;20226;-78
2021/10/17 03:15:48;;;;;;;3.33;1.43;;;24.40;77.80;;;;;;5093519;28;20274;-74
2021/10/17 03:18:15;;;;;;;2.63;1.10;;;24.80;77.90;;;;;;5093533;28;20639;-75
2021/10/17 03:20:43;;;;;;;4.50;1.23;;;24.90;77.80;;;;;;5083085;28;20187;-78
2021/10/17 03:23:10;;;;;;;2.73;1.00;;;25.50;76.50;;;;;;5076703;28;20242;-76
2021/10/17 03:25:37;;;;;;;1.67;0.80;;;25.10;75.80;;;;;;5094575;28;20643;-79
2021/10/17 03:28:05;;;;;;;4.40;1.30;;;25.10;76.20;;;;;;5094435;28;20288;-81
2021/10/17 03:30:32;;;;;;;3.07;1.00;;;25.30;77.20;;;;;;5081248;28;20186;-78
2021/10/17 03:32:59;;;;;;;3.33;1.10;;;24.90;77.20;;;;;;5079673;28;20313;-79
2021/10/17 03:35:27;;;;;;;2.97;0.77;;;24.60;78.50;;;;;;5092784;28;20537;-81
2021/10/17 03:37:54;;;;;;;5.60;1.30;;;24.70;77.70;;;;;;5091939;28;20261;-79
2021/10/17 03:40:21;;;;;;;4.03;1.10;;;24.30;78.10;;;;;;5091398;28;20187;-75
2021/10/17 03:42:49;;;;;;;4.30;1.30;;;24.20;79.30;;;;;;5092871;28;20207;-81
2021/10/17 03:45:16;;;;;;;2.73;1.00;;;24.50;77.70;;;;;;5093410;28;20762;-73
2021/10/17 03:47:44;;;;;;;2.50;0.90;;;24.70;78.90;;;;;;5090703;28;20863;-79
2021/10/17 03:50:11;;;;;;;3.97;1.60;;;25.10;78.40;;;;;;5092449;28;20182;-75
2021/10/17 03:52:39;;;;;;;3.20;1.00;;;25.20;77.20;;;;;;5089303;28;20184;-73
2021/10/17 03:55:06;;;;;;;3.57;1.10;;;24.70;78.70;;;;;;5092904;28;20613;-80
2021/10/17 03:57:43;;;;;;;3.53;1.00;;;24.90;78.20;;;;;;5092471;28;20559;-78
2021/10/17 04:00:11;;;;;;;3.33;1.10;;;25.40;77.50;;;;;;5091036;28;20185;-77
2021/10/17 04:02:38;;;;;;;2.37;0.90;;;25.30;77.50;;;;;;5091428;28;20178;-78
2021/10/17 04:05:06;;;;;;;5.77;1.17;;;25.00;78.20;;;;;;5091494;28;20175;-79
2021/10/17 04:07:35;;;;;;;5.67;1.20;;;24.90;77.80;;;;;;5089667;28;20179;-76
2021/10/17 04:10:03;;;;;;;4.30;1.10;;;25.00;77.80;;;;;;5089689;28;20657;-75
2021/10/17 04:12:31;;;;;;;5.67;0.93;;;24.90;77.20;;;;;;5091101;28;20222;-73
2021/10/17 04:14:59;;;;;;;2.30;0.90;;;24.90;76.30;;;;;;5090048;28;20202;-77
2021/10/17 04:17:26;;;;;;;4.90;0.90;;;25.40;77.10;;;;;;5089126;28;20280;-82
2021/10/17 04:19:54;;;;;;;4.97;2.03;;;25.50;76.50;;;;;;5080014;28;20193;-78
2021/10/17 04:22:22;;;;;;;3.93;2.57;;;25.00;76.80;;;;;;5080124;28;20187;-80
2021/10/17 04:24:49;;;;;;;6.83;3.07;;;25.30;77.30;;;;;;5096879;28;20637;-75
2021/10/17 04:27:17;;;;;;;3.80;1.00;;;25.10;76.60;;;;;;5078503;28;20236;-76
2021/10/17 04:29:44;;;;;;;4.13;1.20;;;25.10;76.20;;;;;;5102209;28;20243;-76
2021/10/17 04:32:11;;;;;;;4.00;0.90;;;25.00;76.60;;;;;;5092056;28;20167;-79
2021/10/17 04:34:39;;;;;;;6.10;1.00;;;24.90;76.20;;;;;;5096705;28;20190;-79
2021/10/17 04:37:07;;;;;;;4.60;0.80;;;25.00;76.30;;;;;;5092836;28;20304;-76
2021/10/17 04:39:36;;;;;;;4.03;1.27;;;24.80;77.30;;;;;;5096690;28;20555;-77
2021/10/17 04:42:04;;;;;;;8.80;1.67;;;25.40;78.10;;;;;;5092022;28;20573;-75
2021/10/17 04:44:33;;;;;;;1.87;1.10;;;25.40;77.10;;;;;;5093030;28;20240;-79
2021/10/17 04:47:01;;;;;;;3.03;1.13;;;25.00;77.30;;;;;;5091872;28;20319;-76
2021/10/17 04:49:28;;;;;;;5.63;1.07;;;25.10;77.20;;;;;;5092515;28;20213;-76
2021/10/17 04:51:57;;;;;;;3.90;1.00;;;25.70;76.40;;;;;;5090810;28;20182;-74
2021/10/17 04:54:24;;;;;;;5.10;1.27;;;25.50;77.50;;;;;;5084283;28;20196;-76
2021/10/17 04:56:52;;;;;;;3.50;1.00;;;25.30;77.70;;;;;;5090738;28;20732;-78
2021/10/17 04:59:21;;;;;;;2.50;1.00;;;24.80;77.20;;;;;;5092555;28;20182;-77
2021/10/17 05:01:50;;;;;;;5.50;1.17;;;25.30;77.00;;;;;;5090947;28;20269;-77
2021/10/17 05:04:18;;;;;;;5.60;1.20;;;25.20;77.50;;;;;;5087493;28;20185;-77
2021/10/17 05:06:46;;;;;;;3.97;1.10;;;24.70;77.60;;;;;;5089710;28;20204;-77
2021/10/17 05:09:13;;;;;;;4.40;1.30;;;24.50;79.00;;;;;;5092833;28;20201;-77
2021/10/17 05:11:41;;;;;;;3.73;1.00;;;24.90;78.40;;;;;;5090369;28;20174;-77
2021/10/17 05:14:08;;;;;;;5.27;1.07;;;24.90;78.60;;;;;;5091865;28;20183;-79
2021/10/17 05:16:35;;;;;;;3.70;1.10;;;25.00;78.30;;;;;;5091309;28;20269;-79
2021/10/17 05:19:03;;;;;;;3.60;0.97;;;25.30;77.80;;;;;;5091858;28;20179;-74
2021/10/17 05:21:30;;;;;;;5.10;0.80;;;25.60;77.70;;;;;;5091670;28;20697;-79
2021/10/17 05:23:58;;;;;;;4.73;1.17;;;25.30;76.30;;;;;;5090577;28;20187;-76
2021/10/17 05:26:25;;;;;;;4.23;1.20;;;25.00;77.10;;;;;;5090938;28;20170;-81
2021/10/17 05:28:53;;;;;;;3.60;1.10;;;25.00;77.90;;;;;;5091454;28;20220;-76
2021/10/17 05:31:24;;;;;;;5.73;1.53;;;25.00;77.90;;;;;;5078015;28;20174;-81
2021/10/17 05:33:51;;;;;;;6.10;1.33;;;24.60;77.80;;;;;;5091202;28;20638;-78
2021/10/17 05:36:18;;;;;;;4.53;1.10;;;23.90;78.80;;;;;;5092456;28;20171;-76
2021/10/17 05:38:46;;;;;;;5.03;1.20;;;23.20;81.50;;;;;;5092574;28;20674;-76
2021/10/17 05:41:16;;;;;;;6.73;1.50;;;23.60;81.80;;;;;;5091562;28;20205;-73
2021/10/17 05:43:46;;;;;;;4.60;1.17;;;24.20;80.90;;;;;;5092124;28;20194;-75
2021/10/17 05:46:14;;;;;;;4.43;1.30;;;24.50;79.20;;;;;;5091973;28;20182;-73
2021/10/17 05:48:41;;;;;;;9.43;1.40;;;24.50;78.80;;;;;;5088581;28;20211;-80
2021/10/17 05:51:09;;;;;;;4.00;1.13;;;24.30;80.30;;;;;;5092571;28;20266;-77
2021/10/17 05:53:36;;;;;;;4.80;1.37;;;24.40;81.10;;;;;;5090624;28;20219;-77
2021/10/17 05:56:04;;;;;;;6.87;1.20;;;24.70;81.40;;;;;;5092179;28;20204;-79
2021/10/17 05:58:31;;;;;;;4.00;1.30;;;24.60;81.40;;;;;;5094977;28;20198;-77
2021/10/17 06:00:58;;;;;;;4.87;1.27;;;24.50;82.00;;;;;;5094535;28;20183;-76
2021/10/17 06:03:26;;;;;;;5.33;1.20;;;24.80;81.40;;;;;;5089799;28;20726;-76
2021/10/17 06:06:00;;;;;;;4.47;1.53;;;24.40;81.30;;;;;;5093447;28;20186;-76
2021/10/17 06:08:27;;;;;;;7.50;1.90;;;24.70;82.30;;;;;;5093787;28;20310;-75
2021/10/17 06:10:58;;;;;;;4.90;1.57;;;24.50;82.00;;;;;;5092406;28;20625;-76
2021/10/17 06:13:25;;;;;;;4.83;1.40;;;24.50;82.70;;;;;;5095126;28;20676;-72
2021/10/17 06:15:53;;;;;;;6.10;1.50;;;24.60;83.30;;;;;;5092780;28;20201;-78
2021/10/17 06:18:20;;;;;;;4.10;1.30;;;25.10;82.90;;;;;;5093485;28;20183;-75
2021/10/17 06:20:48;;;;;;;6.17;2.30;;;25.10;82.20;;;;;;5093646;28;20228;-77
2021/10/17 06:23:15;;;;;;;8.00;2.37;;;25.30;81.20;;;;;;5087034;28;20261;-74
2021/10/17 06:25:42;;;;;;;7.93;2.63;;;24.70;82.80;;;;;;5092020;28;20251;-76
2021/10/17 06:28:10;;;;;;;4.30;1.47;;;24.30;84.60;;;;;;5086643;28;20264;-76
2021/10/17 06:30:37;;;;;;;7.53;1.20;;;24.50;83.50;;;;;;5091731;28;20250;-80
2021/10/17 06:33:04;;;;;;;3.70;1.17;;;24.80;83.90;;;;;;5090275;28;20176;-76
2021/10/17 06:35:32;;;;;;;5.03;1.57;;;24.10;85.10;;;;;;5081308;28;20183;-78
2021/10/17 06:37:59;;;;;;;6.03;1.30;;;24.30;85.20;;;;;;5085992;28;20178;-76
2021/10/17 06:40:26;;;;;;;6.83;2.03;;;24.00;85.40;;;;;;5091887;28;20171;-76
2021/10/17 06:42:57;;;;;;;11.63;1.40;;;23.90;86.60;;;;;;5094213;28;20682;-78
2021/10/17 06:45:24;;;;;;;5.23;1.40;;;24.30;86.60;;;;;;5094319;28;20210;-79
2021/10/17 06:47:52;;;;;;;4.57;1.37;;;23.90;86.60;;;;;;5094886;28;20186;-77
2021/10/17 06:50:20;;;;;;;5.87;1.27;;;24.00;86.40;;;;;;5093850;28;20174;-78
2021/10/17 06:52:49;;;;;;;11.53;6.60;;;23.80;85.80;;;;;;5080178;28;20644;-79
2021/10/17 06:55:17;;;;;;;7.60;1.50;;;23.50;88.10;;;;;;5078448;28;20175;-78
2021/10/17 06:57:48;;;;;;;4.60;1.60;;;23.80;87.50;;;;;;5093458;28;20213;-77
2021/10/17 07:00:17;;;;;;;4.23;1.20;;;23.90;86.50;;;;;;5092509;28;20178;-78
2021/10/17 07:02:44;;;;;;;6.37;1.30;;;24.00;86.80;;;;;;5093907;28;20171;-79
2021/10/17 07:05:15;;;;;;;8.07;1.23;;;24.20;86.90;;;;;;5094548;28;20232;-77
2021/10/17 07:07:42;;;;;;;5.27;1.40;;;24.10;86.30;;;;;;5094018;28;20640;-76
2021/10/17 07:10:09;;;;;;;6.17;1.40;;;24.00;87.00;;;;;;5092965;28;20183;-78
2021/10/17 07:12:37;;;;;;;13.53;2.17;;;23.90;87.20;;;;;;5093130;28;20250;-77
2021/10/17 07:15:05;;;;;;;4.47;1.60;;;23.60;88.30;;;;;;5094435;28;20217;-77
2021/10/17 07:17:32;;;;;;;5.87;1.20;;;23.60;87.80;;;;;;5093785;28;20175;-75
2021/10/17 07:19:59;;;;;;;6.77;1.50;;;23.50;89.40;;;;;;5093571;28;20171;-75
2021/10/17 07:22:27;;;;;;;5.57;2.50;;;23.60;89.40;;;;;;5092026;28;20181;-77
2021/10/17 07:24:57;;;;;;;8.80;3.50;;;23.00;90.60;;;;;;5094090;28;20621;-80
2021/10/17 07:27:25;;;;;;;6.30;1.70;;;23.20;90.60;;;;;;5093863;28;20557;-77
2021/10/17 07:29:52;;;;;;;6.00;2.77;;;22.80;91.30;;;;;;5093450;28;20649;-81
2021/10/17 07:32:22;;;;;;;11.47;2.73;;;22.70;91.80;;;;;;5094314;28;20693;-79
2021/10/17 07:34:49;;;;;;;8.87;2.30;;;22.40;92.40;;;;;;5094117;28;20184;-79
2021/10/17 07:37:17;;;;;;;10.33;5.00;;;22.00;93.20;;;;;;5092299;28;20185;-76
2021/10/17 07:39:44;;;;;;;9.57;2.10;;;21.50;94.70;;;;;;5093367;28;20535;-78
2021/10/17 07:42:12;;;;;;;7.87;1.33;;;21.00;95.60;;;;;;5092872;28;20183;-78
2021/10/17 07:44:39;;;;;;;10.90;1.73;;;20.60;97.10;;;;;;5093412;28;20178;-78
2021/10/17 07:47:06;;;;;;;7.23;1.80;;;20.60;97.90;;;;;;5094002;28;20239;-78
2021/10/17 07:49:37;;;;;;;8.23;2.03;;;20.40;98.40;;;;;;5094542;28;20214;-81
2021/10/17 07:52:04;;;;;;;11.17;2.13;;;20.00;99.80;;;;;;5094005;28;20175;-78
2021/10/17 07:54:33;;;;;;;7.33;1.80;;;19.90;99.90;;;;;;5081596;28;20516;-78
2021/10/17 07:57:00;;;;;;;10.97;1.80;;;19.70;99.90;;;;;;5091990;28;20197;-77
2021/10/17 07:59:27;;;;;;;8.20;2.20;;;19.60;99.90;;;;;;5083954;28;20182;-78
2021/10/17 08:01:55;;;;;;;6.77;2.33;;;19.70;99.90;;;;;;5093498;28;20516;-72
2021/10/17 08:04:22;;;;;;;7.83;1.97;;;19.50;99.90;;;;;;5093851;28;20525;-75
2021/10/17 08:06:50;;;;;;;6.97;2.00;;;19.40;99.90;;;;;;5093135;28;20171;-78
2021/10/17 08:09:17;;;;;;;4.73;1.53;;;19.30;99.90;;;;;;5093866;28;20277;-77
2021/10/17 08:11:44;;;;;;;9.27;1.73;;;19.30;99.90;;;;;;5092260;28;20182;-76
2021/10/17 08:14:15;;;;;;;15.30;3.00;;;19.40;99.90;;;;;;5084028;28;20648;-77
2021/10/17 08:16:42;;;;;;;9.13;1.50;;;19.20;99.90;;;;;;5093744;28;20179;-76
2021/10/17 08:19:09;;;;;;;6.53;1.40;;;19.10;99.90;;;;;;5090656;28;20228;-77
2021/10/17 08:21:37;;;;;;;9.93;1.77;;;19.00;99.90;;;;;;5073380;28;20186;-77
2021/10/17 08:24:04;;;;;;;10.67;2.20;;;18.90;99.90;;;;;;5075971;28;20190;-79
2021/10/17 08:26:33;;;;;;;9.57;2.13;;;18.90;99.90;;;;;;5085041;28;20210;-76
2021/10/17 08:29:00;;;;;;;11.57;2.53;;;18.90;99.90;;;;;;5084481;28;20744;-79
2021/10/17 08:31:27;;;;;;;10.43;2.43;;;18.80;99.90;;;;;;5092463;28;20175;-76
2021/10/17 08:33:58;;;;;;;7.83;1.60;;;18.80;99.90;;;;;;5093170;28;20538;-78
2021/10/17 08:36:28;;;;;;;5.80;1.60;;;18.70;99.90;;;;;;5093154;28;20182;-77
2021/10/17 08:38:59;;;;;;;9.73;1.90;;;18.70;99.90;;;;;;5092238;28;20174;-77
2021/10/17 08:41:30;;;;;;;11.90;2.10;;;18.70;99.90;;;;;;5093079;28;20531;-76
2021/10/17 08:43:57;;;;;;;7.27;1.50;;;18.70;99.90;;;;;;5092527;28;20186;-77
2021/10/17 08:46:27;;;;;;;9.57;1.80;;;18.60;99.90;;;;;;5092872;28;20543;-77
2021/10/17 08:48:59;;;;;;;10.47;2.03;;;18.60;99.90;;;;;;5091665;28;20213;-77
2021/10/17 08:51:27;;;;;;;13.97;2.10;;;18.50;99.90;;;;;;5092659;28;20174;-75
2021/10/17 08:53:55;;;;;;;9.37;1.83;;;18.50;99.90;;;;;;5085224;28;20263;-75
2021/10/17 08:56:25;;;;;;;5.63;2.00;;;18.50;99.90;;;;;;5086300;28;20170;-78
2021/10/17 08:58:53;;;;;;;10.67;2.27;;;18.50;99.90;;;;;;5092134;28;20188;-77
2021/10/17 09:01:20;;;;;;;11.27;2.20;;;18.50;99.90;;;;;;5092900;28;20228;-77
2021/10/17 09:03:58;;;;;;;9.33;2.03;;;18.50;99.90;;;;;;5092781;28;20246;-74
2021/10/17 09:06:29;;;;;;;8.80;1.83;;;18.40;99.90;;;;;;5090403;28;20689;-74
2021/10/17 09:09:26;;;;;;;11.03;2.13;;;18.30;99.90;;;;;;5091058;28;20634;-77
2021/10/17 09:11:58;;;;;;;7.47;2.23;;;18.20;99.90;;;;;;5091183;28;20218;-74
2021/10/17 09:14:31;;;;;;;11.80;2.07;;;18.30;99.90;;;;;;5092662;28;20171;-77
2021/10/17 09:16:59;;;;;;;10.97;2.00;;;18.30;99.90;;;;;;5092664;28;20229;-76
2021/10/17 09:19:29;;;;;;;10.87;2.50;;;18.30;99.90;;;;;;5091623;28;20183;-77
2021/10/17 09:22:06;;;;;;;12.67;2.57;;;18.20;99.90;;;;;;5093587;28;20177;-77
2021/10/17 09:24:37;;;;;;;10.87;2.30;;;18.10;99.90;;;;;;5082536;28;20171;-75
2021/10/17 09:27:18;;;;;;;18.47;3.20;;;18.20;99.90;;;;;;5096552;28;20239;-76
2021/10/17 09:29:55;;;;;;;9.97;2.50;;;18.10;99.90;;;;;;5096286;28;20241;-75
2021/10/17 09:32:26;;;;;;;13.47;2.10;;;18.20;99.90;;;;;;5097073;28;20166;-76
2021/10/17 09:34:59;;;;;;;10.03;2.07;;;18.10;99.90;;;;;;5094962;28;20185;-76
2021/10/17 09:37:34;;;;;;;8.07;2.20;;;18.10;99.90;;;;;;5095443;28;20227;-76
2021/10/17 09:40:03;;;;;;;14.17;2.70;;;18.10;99.90;;;;;;5096971;28;20176;-75
2021/10/17 09:42:38;;;;;;;5.93;2.00;;;18.00;99.90;;;;;;5095196;28;20198;-78
2021/10/17 09:45:23;;;;;;;8.90;1.70;;;18.00;99.90;;;;;;5096616;28;20174;-76
2021/10/17 09:47:51;;;;;;;4.83;1.83;;;17.90;99.90;;;;;;5096394;28;20182;-76
2021/10/17 09:50:20;;;;;;;6.83;1.97;;;17.90;99.90;;;;;;5096467;28;20197;-76
2021/10/17 09:52:57;;;;;;;9.80;2.37;;;17.90;99.90;;;;;;5095743;28;20534;-75
2021/10/17 09:55:25;;;;;;;8.97;2.03;;;17.90;99.90;;;;;;5082272;28;20190;-76
2021/10/17 09:57:53;;;;;;;12.63;1.97;;;17.90;99.90;;;;;;5096071;28;20240;-79
2021/10/17 10:00:21;;;;;;;7.87;2.17;;;17.90;99.90;;;;;;5095662;28;20652;-78
2021/10/17 10:02:51;;;;;;;13.13;2.10;;;17.90;99.90;;;;;;5096210;28;20221;-77
2021/10/17 10:05:24;;;;;;;10.43;1.93;;;17.90;99.90;;;;;;5094732;28;20212;-77
2021/10/17 10:07:53;;;;;;;11.50;2.17;;;17.90;99.90;;;;;;5095612;28;20182;-78
2021/10/17 10:10:40;;;;;;;10.70;2.50;;;17.80;99.90;;;;;;5094785;28;20190;-77
2021/10/17 10:13:10;;;;;;;8.67;2.23;;;17.80;99.90;;;;;;5095874;28;20314;-77
2021/10/17 10:15:40;;;;;;;12.77;2.40;;;17.80;99.90;;;;;;5094990;28;20179;-78
2021/10/17 10:18:08;;;;;;;14.30;2.80;;;17.80;99.90;;;;;;5084301;28;20267;-77
2021/10/17 10:20:36;;;;;;;9.17;1.80;;;17.80;99.90;;;;;;5078488;28;20479;-75
2021/10/17 10:23:06;;;;;;;12.73;2.43;;;17.80;99.90;;;;;;5079686;28;20179;-78
2021/10/17 10:25:35;;;;;;;15.03;2.10;;;17.80;99.90;;;;;;5088535;28;20174;-77
2021/10/17 10:28:02;;;;;;;12.10;2.27;;;17.70;99.90;;;;;;5095481;28;20179;-77
2021/10/17 10:30:34;;;;;;;14.30;2.40;;;17.70;99.90;;;;;;5092622;28;20659;-77
2021/10/17 10:33:22;;;;;;;9.67;2.10;;;17.70;99.90;;;;;;5093083;28;20166;-78
2021/10/17 10:36:12;;;;;;;10.53;2.37;;;17.70;99.90;;;;;;5094180;28;20530;-76
2021/10/17 10:38:54;;;;;;;12.33;2.23;;;17.70;99.90;;;;;;5083339;28;20178;-76
2021/10/17 10:41:28;;;;;;;7.93;2.00;;;17.60;99.90;;;;;;5094513;28;20641;-77
2021/10/17 10:44:19;;;;;;;9.27;1.83;;;17.60;99.90;;;;;;5078710;28;20536;-77
2021/10/17 10:46:46;;;;;;;10.00;2.37;;;17.60;99.90;;;;;;5092178;28;20182;-77
2021/10/17 10:49:44;;;;;;;10.20;1.87;;;17.60;99.90;;;;;;5092876;28;20218;-75
2021/10/17 10:52:31;;;;;;;9.67;1.70;;;17.60;99.90;;;;;;5083461;28;20182;-75
2021/10/17 10:55:13;;;;;;;10.40;2.17;;;17.60;99.90;;;;;;5079319;28;20640;-75
2021/10/17 10:57:44;;;;;;;6.87;1.90;;;17.60;99.90;;;;;;5094460;28;20604;-75
2021/10/17 11:00:17;;;;;;;19.87;3.10;;;17.60;99.90;;;;;;5095008;28;20183;-75
2021/10/17 11:03:12;;;;;;;12.13;2.00;;;17.60;99.90;;;;;;5085620;28;20175;-75
2021/10/17 11:05:40;;;;;;;9.17;1.90;;;17.60;99.90;;;;;;5094827;28;20170;-77
2021/10/17 11:08:15;;;;;;;8.93;1.63;;;17.60;99.90;;;;;;5078036;28;20290;-75
2021/10/17 11:10:47;;;;;;;13.03;2.43;;;17.60;99.90;;;;;;5092965;28;20174;-78
2021/10/17 11:13:32;;;;;;;10.50;2.37;;;17.50;99.90;;;;;;5094106;28;20246;-76
2021/10/17 11:16:00;;;;;;;5.57;1.67;;;17.50;99.90;;;;;;5080658;28;20586;-75
2021/10/17 11:18:33;;;;;;;5.23;1.77;;;17.50;99.90;;;;;;5094927;28;20258;-75
2021/10/17 11:21:01;;;;;;;9.97;2.13;;;17.50;99.90;;;;;;5094242;28;20180;-78
2021/10/17 11:23:33;;;;;;;11.30;2.10;;;17.40;99.90;;;;;;5094407;28;20178;-76
2021/10/17 11:26:02;;;;;;;10.57;2.57;;;17.40;99.90;;;;;;5093736;28;20220;-77
2021/10/17 11:28:30;;;;;;;12.50;2.33;;;17.40;99.90;;;;;;5093120;28;20220;-78
2021/10/17 11:31:02;;;;;;;11.10;2.23;;;17.40;99.90;;;;;;5094150;28;20179;-79
2021/10/17 11:33:30;;;;;;;10.13;2.37;;;17.40;99.90;;;;;;5094711;28;20210;-77
2021/10/17 11:35:59;;;;;;;9.27;2.27;;;17.40;99.90;;;;;;5094273;28;20656;-78
2021/10/17 11:38:27;;;;;;;6.70;1.87;;;17.40;99.90;;;;;;5093957;28;20184;-78
2021/10/17 11:41:03;;;;;;;11.23;2.03;;;17.40;99.90;;;;;;5093464;28;20178;-76
2021/10/17 11:43:41;;;;;;;9.57;2.13;;;17.30;99.90;;;;;;5091852;28;20268;-79
2021/10/17 11:46:17;;;;;;;9.10;2.13;;;17.40;99.90;;;;;;5088313;28;20209;-78
2021/10/17 11:48:46;;;;;;;10.10;2.47;;;17.30;99.90;;;;;;5085781;28;20324;-79
2021/10/17 11:51:15;;;;;;;13.60;2.63;;;17.30;99.90;;;;;;5092609;28;20195;-78
2021/10/17 11:53:43;;;;;;;11.60;2.10;;;17.30;99.90;;;;;;5088287;28;20175;-77
2021/10/17 11:56:11;;;;;;;11.43;2.23;;;17.30;99.90;;;;;;5084632;28;20171;-78
2021/10/17 11:58:41;;;;;;;10.13;2.20;;;17.30;99.90;;;;;;5093287;28;20214;-77
2021/10/17 12:01:18;;;;;;;9.63;2.60;;;17.30;99.90;;;;;;5079057;28;20171;-79
2021/10/17 12:03:59;;;;;;;10.40;2.20;;;17.20;99.90;;;;;;5078413;28;20218;-80
2021/10/17 12:06:26;;;;;;;14.90;2.50;;;17.20;99.90;;;;;;5091193;28;20174;-80
2021/10/17 12:08:56;;;;;;;9.50;1.60;;;17.20;99.90;;;;;;5093364;28;20248;-79
2021/10/17 12:11:24;;;;;;;10.10;2.30;;;17.20;99.90;;;;;;5093048;28;20564;-79
2021/10/17 12:13:54;;;;;;;12.43;2.50;;;17.20;99.90;;;;;;5093143;28;20237;-81
2021/10/17 12:16:26;;;;;;;15.37;2.70;;;17.20;99.90;;;;;;5087807;28;20209;-80
2021/10/17 12:19:05;;;;;;;13.70;2.27;;;17.20;99.90;;;;;;5093653;28;20257;-80
2021/10/17 12:21:46;;;;;;;11.43;2.27;;;17.20;99.90;;;;;;5093578;28;20684;-80
2021/10/17 12:24:14;;;;;;;8.60;2.33;;;17.10;99.90;;;;;;5092182;28;20326;-80
2021/10/17 12:26:51;;;;;;;12.00;2.30;;;17.00;99.90;;;;;;5092664;28;20227;-79
2021/10/17 12:29:19;;;;;;;8.93;2.07;;;17.00;99.90;;;;;;5093286;28;20228;-81
2021/10/17 12:32:03;;;;;;;7.77;2.10;;;17.00;99.90;;;;;;5092756;28;20229;-80
2021/10/17 12:34:48;;;;;;;10.90;2.30;;;16.90;99.90;;;;;;5083854;28;20182;-77
2021/10/17 12:37:20;;;;;;;7.20;2.00;;;16.80;99.90;;;;;;5093241;28;20175;-77
2021/10/17 12:39:47;;;;;;;12.97;2.90;;;16.80;99.90;;;;;;5092967;28;20247;-77
2021/10/17 12:42:15;;;;;;;11.07;2.30;;;16.80;99.90;;;;;;5088414;28;20660;-78
2021/10/17 12:44:47;;;;;;;11.43;2.63;;;16.80;99.90;;;;;;5072372;28;20190;-77
2021/10/17 12:47:15;;;;;;;12.13;2.70;;;16.80;99.90;;;;;;5091967;28;20175;-78
2021/10/17 12:49:45;;;;;;;13.60;2.73;;;16.70;99.90;;;;;;5091429;28;20653;-78
2021/10/17 12:52:27;;;;;;;5.60;2.27;;;16.60;99.90;;;;;;5090370;28;20304;-78
2021/10/17 12:54:59;;;;;;;8.57;2.43;;;16.70;99.90;;;;;;5078927;28;20190;-77
2021/10/17 12:57:26;;;;;;;8.13;2.37;;;16.70;99.90;;;;;;5088592;28;20178;-80